Time;durP1;ratioP1;P1;durP2;ratioP2;P2;SDS_P1;SDS_P2;PMS_P1;PMS_P2;Temp;Humidity;BMP_temperature;BMP_pressure;BME280_temperature;BME280_humidity;BME280_pressure;Samples;Min_cycle;Max_cycle;Signal;HPM_P1;HPM_P2
2024/01/13 00:00:02;;;;;;;42.60;10.90;;;;;;;-6.48;49.20;101040.73;108143;1277;23056;-60
2024/01/13 00:02:28;;;;;;;265.40;39.70;;;;;;;-6.51;49.04;101036.41;108114;1288;22000;-60
2024/01/13 00:04:54;;;;;;;268.60;49.40;;;;;;;-6.55;49.02;101034.61;108083;1288;22001;-62
2024/01/13 00:07:19;;;;;;;154.20;37.90;;;;;;;-6.53;49.44;101033.55;107333;1288;1002714;-62
2024/01/13 00:09:45;;;;;;;37.00;11.00;;;;;;;-6.49;49.37;101030.95;108084;1284;22104;-62
2024/01/13 00:12:10;;;;;;;23.10;7.10;;;;;;;-6.45;49.30;101026.81;108120;1283;21990;-59
2024/01/13 00:14:36;;;;;;;20.00;7.90;;;;;;;-6.43;49.23;101021.83;107364;1288;1003645;-63
2024/01/13 00:17:01;;;;;;;15.00;4.20;;;;;;;-6.45;49.09;101018.89;107994;1288;22010;-60
2024/01/13 00:19:27;;;;;;;12.00;5.00;;;;;;;-6.47;49.26;101019.33;108132;1288;21994;-61
2024/01/13 00:21:53;;;;;;;14.10;3.90;;;;;;;-6.48;49.38;101018.54;108146;1288;22000;-63
2024/01/13 00:24:18;;;;;;;11.30;4.00;;;;;;;-6.49;49.42;101016.61;107366;1288;1002842;-63
2024/01/13 00:26:44;;;;;;;9.70;3.60;;;;;;;-6.48;49.30;101012.37;107369;1287;1002456;-63
2024/01/13 00:29:11;;;;;;;14.00;4.40;;;;;;;-6.46;49.46;101009.48;107995;1288;21986;-61
2024/01/13 00:31:36;;;;;;;9.00;3.00;;;;;;;-6.45;49.59;101011.09;108175;1286;21988;-61
2024/01/13 00:34:02;;;;;;;10.80;3.80;;;;;;;-6.44;49.34;101008.95;107498;1285;1002498;-64
2024/01/13 00:36:27;;;;;;;8.30;3.40;;;;;;;-6.45;49.15;101008.14;108285;1286;22450;-63
2024/01/13 00:38:53;;;;;;;9.20;3.50;;;;;;;-6.53;49.13;101009.67;108294;1286;22015;-65
2024/01/13 00:41:19;;;;;;;10.10;3.50;;;;;;;-6.58;48.96;101006.44;108258;1286;22021;-63
2024/01/13 00:43:44;;;;;;;5.80;2.80;;;;;;;-6.61;49.11;101005.23;107422;1286;1002756;-60
2024/01/13 00:46:10;;;;;;;9.50;3.70;;;;;;;-6.62;49.12;100999.02;108272;1286;21985;-61
2024/01/13 00:48:36;;;;;;;17.00;5.00;;;;;;;-6.67;48.86;100993.55;108115;1286;21990;-60
2024/01/13 00:51:02;;;;;;;18.20;6.40;;;;;;;-6.73;49.02;100989.23;108306;1286;21989;-61
2024/01/13 00:53:28;;;;;;;12.40;4.10;;;;;;;-6.79;49.01;100983.91;107537;1281;1002556;-61
2024/01/13 00:55:53;;;;;;;8.50;3.10;;;;;;;-6.84;48.88;100978.43;107352;1286;1002449;-61
2024/01/13 00:58:19;;;;;;;8.60;3.10;;;;;;;-6.87;49.16;100976.35;108127;1284;21989;-63
2024/01/13 01:00:45;;;;;;;7.20;3.40;;;;;;;-6.89;49.03;100973.00;108178;1283;21986;-60
2024/01/13 01:03:11;;;;;;;9.10;3.90;;;;;;;-6.94;49.07;100978.98;108224;1285;22419;-61
2024/01/13 01:05:36;;;;;;;9.40;3.20;;;;;;;-7.00;49.21;100977.01;108146;1286;22042;-61
2024/01/13 01:08:02;;;;;;;10.70;3.90;;;;;;;-7.05;48.99;100969.68;107469;1286;1004172;-63
2024/01/13 01:10:28;;;;;;;12.50;4.10;;;;;;;-7.10;49.25;100966.44;107366;1286;1002938;-63
2024/01/13 01:12:53;;;;;;;11.30;4.10;;;;;;;-7.12;49.20;100966.44;107439;1284;1002340;-64
2024/01/13 01:15:19;;;;;;;7.90;3.40;;;;;;;-7.11;49.25;100963.61;108226;1277;22040;-62
2024/01/13 01:17:44;;;;;;;9.60;4.20;;;;;;;-7.11;49.43;100966.58;108080;1281;21987;-64
2024/01/13 01:20:11;;;;;;;10.30;3.90;;;;;;;-7.11;49.54;100967.22;107342;1280;1003794;-64
2024/01/13 01:22:36;;;;;;;12.20;5.00;;;;;;;-7.09;49.44;100966.32;108215;1276;22771;-61
2024/01/13 01:25:02;;;;;;;9.50;3.70;;;;;;;-7.06;49.43;100965.20;108156;1286;21987;-65
2024/01/13 01:27:28;;;;;;;10.20;4.70;;;;;;;-7.04;49.46;100958.69;108103;1286;21994;-61
2024/01/13 01:29:54;;;;;;;14.00;5.90;;;;;;;-7.02;49.58;100949.21;108236;1286;21990;-64
2024/01/13 01:32:19;;;;;;;44.00;15.60;;;;;;;-7.01;49.42;100946.73;108102;1288;22028;-63
2024/01/13 01:34:45;;;;;;;169.90;55.40;;;;;;;-6.99;49.52;100948.20;107358;1288;1002404;-64
2024/01/13 01:37:11;;;;;;;85.90;32.60;;;;;;;-7.00;49.60;100943.20;107377;1288;1002596;-64
2024/01/13 01:39:36;;;;;;;36.50;14.70;;;;;;;-7.03;49.40;100942.72;108139;1280;21992;-61
2024/01/13 01:42:02;;;;;;;22.50;7.30;;;;;;;-7.05;49.38;100935.39;108095;1288;21991;-63
2024/01/13 01:44:28;;;;;;;22.70;8.50;;;;;;;-7.06;49.37;100931.71;107327;1288;1002567;-63
2024/01/13 01:46:55;;;;;;;17.20;7.00;;;;;;;-7.08;49.42;100928.19;107364;1281;1002625;-64
2024/01/13 01:49:20;;;;;;;13.00;5.80;;;;;;;-7.11;49.42;100925.64;108046;1288;21988;-61
2024/01/13 01:51:46;;;;;;;11.80;5.20;;;;;;;-7.12;49.34;100922.13;107331;1288;1003760;-63
2024/01/13 01:54:11;;;;;;;14.00;5.00;;;;;;;-7.13;49.53;100914.23;107352;1288;1002987;-61
2024/01/13 01:56:37;;;;;;;9.10;4.10;;;;;;;-7.14;49.49;100909.36;108110;1283;24097;-63
2024/01/13 01:59:03;;;;;;;11.80;4.20;;;;;;;-7.14;49.51;100907.02;108095;1288;21988;-61
2024/01/13 02:01:30;;;;;;;8.60;4.40;;;;;;;-7.12;49.53;100903.17;108165;1283;21992;-61
2024/01/13 02:03:56;;;;;;;10.20;3.80;;;;;;;-7.12;49.64;100900.48;108203;1288;22007;-61
2024/01/13 02:06:21;;;;;;;11.90;5.40;;;;;;;-7.12;49.60;100901.33;108079;1276;21997;-61
2024/01/13 02:08:47;;;;;;;9.40;4.60;;;;;;;-7.13;49.56;100895.45;108083;1288;21955;-61
2024/01/13 02:11:13;;;;;;;13.80;4.90;;;;;;;-7.14;49.49;100891.30;107192;1288;1003061;-64
2024/01/13 02:13:39;;;;;;;9.30;4.00;;;;;;;-7.13;49.70;100885.19;108089;1283;21991;-61
2024/01/13 02:16:06;;;;;;;14.40;4.70;;;;;;;-7.14;49.65;100883.93;108137;1288;21996;-61
2024/01/13 02:18:32;;;;;;;12.60;4.90;;;;;;;-7.12;49.75;100879.09;107375;1276;1002921;-60
2024/01/13 02:20:57;;;;;;;11.80;5.30;;;;;;;-7.10;49.74;100880.13;108049;1288;21990;-61
2024/01/13 02:23:23;;;;;;;11.90;5.30;;;;;;;-7.07;49.78;100877.59;108074;1288;22003;-60
2024/01/13 02:25:49;;;;;;;10.00;5.00;;;;;;;-7.04;49.97;100871.96;107354;1288;1002445;-62
2024/01/13 02:28:18;;;;;;;11.60;4.60;;;;;;;-7.03;49.71;100866.79;108073;1288;23654;-64
2024/01/13 02:30:44;;;;;;;;;;;;;;;-7.03;49.79;100862.02;108142;1288;21972;-62
2024/01/13 02:33:10;;;;;;;10.90;4.30;;;;;;;-7.02;50.00;100863.08;108133;1288;21991;-64
2024/01/13 02:35:35;;;;;;;10.50;5.40;;;;;;;-7.02;49.80;100863.78;107462;1288;1002844;-61
2024/01/13 02:38:01;;;;;;;12.80;5.20;;;;;;;-7.04;49.79;100861.95;107399;1288;1002479;-62
2024/01/13 02:40:29;;;;;;;10.80;5.00;;;;;;;-7.04;49.85;100857.66;107259;1288;1002460;-63
2024/01/13 02:42:54;;;;;;;12.80;5.40;;;;;;;-7.08;49.81;100858.92;107429;1288;1003166;-64
2024/01/13 02:45:20;;;;;;;9.70;4.10;;;;;;;-7.11;49.89;100856.20;108123;1288;21987;-64
2024/01/13 02:47:49;;;;;;;14.30;5.60;;;;;;;-7.11;49.92;100854.95;108084;1286;22005;-61
2024/01/13 02:50:14;;;;;;;18.90;6.70;;;;;;;-7.10;50.00;100852.69;108105;1277;21996;-64
2024/01/13 02:52:42;;;;;;;12.80;5.30;;;;;;;-7.08;50.21;100853.67;107371;1288;1003099;-63
2024/01/13 02:55:08;;;;;;;12.50;5.10;;;;;;;-7.08;50.11;100856.22;107419;1283;1002853;-63
2024/01/13 02:57:33;;;;;;;13.30;4.50;;;;;;;-7.08;50.02;100856.40;107362;1284;1004004;-62
2024/01/13 02:59:59;;;;;;;10.30;4.40;;;;;;;-7.11;50.09;100852.78;108163;1288;21992;-61
2024/01/13 03:02:25;;;;;;;9.40;4.20;;;;;;;-7.13;50.00;100849.55;108081;1277;21990;-63
2024/01/13 03:04:51;;;;;;;10.10;5.10;;;;;;;-7.15;49.96;100847.53;108106;1278;23043;-62
2024/01/13 03:07:16;;;;;;;11.40;4.70;;;;;;;-7.18;49.96;100846.52;107388;1288;1002388;-64
2024/01/13 03:09:42;;;;;;;11.20;5.00;;;;;;;-7.20;49.89;100842.64;108098;1288;22029;-61
2024/01/13 03:12:07;;;;;;;9.60;4.20;;;;;;;-7.22;50.00;100841.67;108117;1284;24006;-61
2024/01/13 03:14:33;;;;;;;14.50;6.00;;;;;;;-7.20;49.99;100833.73;108115;1288;21992;-61
2024/01/13 03:16:59;;;;;;;10.40;5.10;;;;;;;-7.20;50.01;100839.57;107366;1278;1002707;-63
2024/01/13 03:19:24;;;;;;;14.20;5.70;;;;;;;-7.22;50.09;100838.25;108102;1288;21993;-64
2024/01/13 03:21:50;;;;;;;10.30;4.20;;;;;;;-7.23;49.97;100837.16;108114;1281;21987;-61
2024/01/13 03:24:15;;;;;;;11.70;5.10;;;;;;;-7.27;50.16;100832.27;107376;1288;1002874;-63
2024/01/13 03:26:41;;;;;;;11.10;4.20;;;;;;;-7.27;50.07;100827.15;108137;1286;21993;-61
2024/01/13 03:29:06;;;;;;;11.70;5.40;;;;;;;-7.27;50.16;100825.76;108069;1287;22113;-63
2024/01/13 03:31:32;;;;;;;10.10;4.60;;;;;;;-7.27;50.18;100820.33;107359;1288;1002510;-61
2024/01/13 03:33:57;;;;;;;7.70;3.70;;;;;;;-7.23;50.32;100819.55;108084;1284;21998;-63
2024/01/13 03:36:23;;;;;;;8.90;3.80;;;;;;;-7.21;50.30;100817.11;108081;1284;21993;-62
2024/01/13 03:38:48;;;;;;;8.50;3.30;;;;;;;-7.20;50.14;100816.22;107382;1288;1002426;-61
2024/01/13 03:41:17;;;;;;;8.90;3.90;;;;;;;-7.22;50.26;100810.63;107345;1284;1003437;-61
2024/01/13 03:43:42;;;;;;;8.20;3.70;;;;;;;-7.20;50.21;100810.56;107281;1288;1002711;-61
2024/01/13 03:46:08;;;;;;;11.60;4.40;;;;;;;-7.16;50.27;100809.59;107324;1277;1002520;-63
2024/01/13 03:48:33;;;;;;;13.70;5.30;;;;;;;-7.17;50.28;100805.34;108041;1287;22002;-61
2024/01/13 03:50:59;;;;;;;12.30;5.10;;;;;;;-7.18;50.21;100800.48;108067;1283;22002;-61
2024/01/13 03:53:25;;;;;;;11.10;3.80;;;;;;;-7.16;50.28;100805.54;108037;1288;22002;-63
2024/01/13 03:55:50;;;;;;;10.00;3.90;;;;;;;-7.14;50.24;100801.38;107255;1288;1002427;-61
2024/01/13 03:58:16;;;;;;;9.40;3.60;;;;;;;-7.10;50.20;100799.05;108071;1288;22005;-63
2024/01/13 04:00:42;;;;;;;10.00;3.30;;;;;;;-7.06;50.21;100792.73;108086;1277;21976;-63
2024/01/13 04:03:07;;;;;;;9.60;4.60;;;;;;;-7.03;50.34;100792.38;108051;1283;22002;-61
2024/01/13 04:05:34;;;;;;;10.80;3.90;;;;;;;-7.04;50.22;100787.17;108149;1286;21988;-62
2024/01/13 04:08:00;;;;;;;8.60;3.70;;;;;;;-7.04;50.04;100780.52;108084;1286;22011;-63
2024/01/13 04:10:26;;;;;;;23.50;7.10;;;;;;;-7.04;50.21;100771.66;107397;1288;1002387;-61
2024/01/13 04:12:51;;;;;;;19.00;6.90;;;;;;;-7.06;50.13;100770.39;108096;1288;22006;-61
2024/01/13 04:15:17;;;;;;;14.30;5.30;;;;;;;-7.10;49.97;100771.48;108112;1280;21992;-60
2024/01/13 04:17:42;;;;;;;10.10;4.00;;;;;;;-7.17;49.83;100776.11;108158;1288;21995;-62
2024/01/13 04:20:08;;;;;;;10.10;4.00;;;;;;;-7.22;49.84;100772.70;107332;1277;1002707;-61
2024/01/13 04:22:34;;;;;;;10.80;4.30;;;;;;;-7.25;49.81;100775.63;107333;1288;1002550;-62
2024/01/13 04:24:59;;;;;;;13.20;3.70;;;;;;;-7.28;49.86;100778.52;107258;1280;1003176;-61
2024/01/13 04:27:25;;;;;;;10.70;4.80;;;;;;;-7.31;49.85;100778.48;108090;1287;21986;-62
2024/01/13 04:29:51;;;;;;;9.70;4.00;;;;;;;-7.33;49.87;100775.64;108115;1278;21995;-62
2024/01/13 04:32:16;;;;;;;11.20;4.30;;;;;;;-7.33;49.87;100773.92;107388;1288;1002917;-61
2024/01/13 04:34:42;;;;;;;9.20;3.20;;;;;;;-7.33;49.92;100765.59;108000;1288;21995;-61
2024/01/13 04:37:07;;;;;;;9.30;3.50;;;;;;;-7.30;49.89;100758.70;108119;1288;21992;-61
2024/01/13 04:39:33;;;;;;;10.80;3.10;;;;;;;-7.28;50.13;100759.57;107188;1288;1002535;-61
2024/01/13 04:41:58;;;;;;;9.00;4.10;;;;;;;-7.22;50.20;100753.47;108113;1288;21994;-62
2024/01/13 04:44:24;;;;;;;5.60;2.80;;;;;;;-7.18;50.17;100751.52;108105;1280;22003;-62
2024/01/13 04:46:52;;;;;;;8.70;3.50;;;;;;;-7.12;50.25;100749.66;107364;1286;1002569;-61
2024/01/13 04:49:18;;;;;;;9.80;3.50;;;;;;;-7.07;50.13;100742.66;108076;1286;21999;-63
2024/01/13 04:51:43;;;;;;;5.90;2.90;;;;;;;-7.09;50.12;100737.92;108142;1284;22016;-63
2024/01/13 04:54:11;;;;;;;9.70;3.60;;;;;;;-7.08;50.22;100736.44;107381;1288;1002944;-62
2024/01/13 04:56:37;;;;;;;8.00;3.60;;;;;;;-7.08;50.22;100732.55;108097;1288;21993;-61
2024/01/13 04:59:02;;;;;;;9.10;2.90;;;;;;;-7.06;50.32;100730.98;108108;1288;21992;-61
2024/01/13 05:01:31;;;;;;;9.50;3.40;;;;;;;-7.04;50.24;100732.08;108045;1288;21987;-62
2024/01/13 05:03:57;;;;;;;8.40;3.80;;;;;;;-7.05;50.11;100738.36;108053;1286;21990;-62
2024/01/13 05:06:22;;;;;;;7.10;3.40;;;;;;;-7.06;50.13;100736.38;107198;1288;1002406;-62
2024/01/13 05:08:50;;;;;;;8.60;3.10;;;;;;;-7.08;50.05;100735.96;107242;1287;1002491;-61
2024/01/13 05:11:19;;;;;;;8.50;2.90;;;;;;;-7.08;50.22;100731.99;108065;1288;21984;-62
2024/01/13 05:13:45;;;;;;;6.70;2.70;;;;;;;-7.03;50.32;100725.48;108077;1288;21994;-61
2024/01/13 05:16:10;;;;;;;7.00;2.50;;;;;;;-6.94;50.43;100725.55;108108;1284;21985;-61
2024/01/13 05:18:36;;;;;;;5.90;2.50;;;;;;;-6.88;50.67;100725.30;107312;1288;1002941;-63
2024/01/13 05:21:02;;;;;;;7.90;3.10;;;;;;;-6.82;50.50;100723.44;108084;1288;21992;-61
2024/01/13 05:23:28;;;;;;;5.10;2.70;;;;;;;-6.76;50.31;100720.87;108110;1288;21991;-62
2024/01/13 05:25:54;;;;;;;7.90;3.50;;;;;;;-6.75;50.53;100721.66;108085;1287;23746;-62
2024/01/13 05:28:19;;;;;;;5.80;2.50;;;;;;;-6.73;50.36;100721.61;108096;1283;21990;-62
2024/01/13 05:30:45;;;;;;;6.50;2.60;;;;;;;-6.70;50.25;100717.66;107401;1286;1002491;-61
2024/01/13 05:33:10;;;;;;;9.00;3.30;;;;;;;-6.68;50.24;100718.79;108142;1284;21997;-61
2024/01/13 05:35:36;;;;;;;7.50;2.10;;;;;;;-6.70;50.24;100719.72;108070;1277;21993;-64
2024/01/13 05:38:02;;;;;;;9.10;3.50;;;;;;;-6.61;50.58;100719.44;107425;1286;1002415;-63
2024/01/13 05:40:28;;;;;;;8.60;2.90;;;;;;;-6.58;50.42;100715.52;108187;1286;22456;-63
2024/01/13 05:42:53;;;;;;;7.10;3.00;;;;;;;-6.69;50.03;100711.25;107390;1286;1003104;-61
2024/01/13 05:45:19;;;;;;;7.90;2.80;;;;;;;-6.74;50.10;100711.49;108128;1286;22024;-61
2024/01/13 05:47:44;;;;;;;6.70;2.70;;;;;;;-6.74;50.45;100708.55;108114;1286;21989;-61
2024/01/13 05:50:10;;;;;;;10.20;3.60;;;;;;;-6.68;50.44;100706.17;107477;1286;1003006;-63
2024/01/13 05:52:36;;;;;;;8.60;2.90;;;;;;;-6.64;50.65;100704.71;107425;1286;1002593;-61
2024/01/13 05:55:06;;;;;;;6.50;3.10;;;;;;;-6.60;50.53;100698.17;107394;1278;1002285;-61
2024/01/13 05:57:32;;;;;;;8.10;3.00;;;;;;;-6.57;50.74;100696.60;107388;1273;1002887;-63
2024/01/13 05:59:57;;;;;;;8.10;3.60;;;;;;;-6.54;50.68;100701.90;108169;1286;21992;-61
2024/01/13 06:02:23;;;;;;;8.70;3.40;;;;;;;-6.53;50.52;100699.73;107418;1286;1003087;-63
2024/01/13 06:04:49;;;;;;;7.60;2.90;;;;;;;-6.58;50.34;100699.28;108145;1286;21981;-61
2024/01/13 06:07:15;;;;;;;9.30;3.10;;;;;;;-6.57;50.45;100700.92;107459;1286;1002457;-60
2024/01/13 06:09:40;;;;;;;9.10;3.00;;;;;;;-6.53;50.68;100704.01;108229;1286;21984;-61
2024/01/13 06:12:09;;;;;;;8.50;3.00;;;;;;;-6.48;50.63;100702.30;108179;1281;22037;-60
2024/01/13 06:14:34;;;;;;;8.00;2.90;;;;;;;-6.48;50.94;100695.81;107479;1286;1003058;-60
2024/01/13 06:17:00;;;;;;;7.50;3.00;;;;;;;-6.41;50.85;100695.54;108123;1283;21983;-63
2024/01/13 06:19:25;;;;;;;8.20;2.80;;;;;;;-6.38;51.08;100693.86;108245;1280;21990;-60
2024/01/13 06:21:51;;;;;;;6.30;2.90;;;;;;;-6.36;50.97;100693.94;107440;1286;1002596;-61
2024/01/13 06:24:17;;;;;;;8.50;3.30;;;;;;;-6.33;50.82;100684.41;108131;1286;22003;-61
2024/01/13 06:26:42;;;;;;;7.30;2.90;;;;;;;-6.30;50.88;100683.23;108154;1286;22025;-64
2024/01/13 06:29:08;;;;;;;5.90;3.10;;;;;;;-6.26;50.86;100677.30;108168;1286;21995;-61
2024/01/13 06:31:34;;;;;;;9.10;2.80;;;;;;;-6.23;50.97;100671.32;108080;1286;21995;-61
2024/01/13 06:34:00;;;;;;;7.20;2.60;;;;;;;-6.22;50.79;100667.83;108036;1288;21985;-63
2024/01/13 06:36:25;;;;;;;5.90;2.50;;;;;;;-6.20;50.84;100660.05;107402;1280;1002369;-63
2024/01/13 06:38:51;;;;;;;8.10;3.20;;;;;;;-6.17;50.97;100658.23;107365;1283;1002681;-63
2024/01/13 06:41:16;;;;;;;9.30;3.10;;;;;;;-6.10;51.14;100654.34;108102;1283;21986;-60
2024/01/13 06:43:42;;;;;;;7.70;3.00;;;;;;;-6.01;51.27;100651.79;108099;1280;21989;-61
2024/01/13 06:46:08;;;;;;;6.40;2.80;;;;;;;-5.90;51.35;100651.34;107343;1288;1002453;-60
2024/01/13 06:48:34;;;;;;;7.70;3.50;;;;;;;-5.80;51.62;100648.71;108095;1283;21996;-64
2024/01/13 06:50:59;;;;;;;10.00;4.40;;;;;;;-5.71;51.59;100649.56;107365;1277;1003295;-63
2024/01/13 06:53:25;;;;;;;12.40;3.80;;;;;;;-5.63;51.54;100643.70;108155;1286;22000;-63
2024/01/13 06:55:51;;;;;;;8.00;3.40;;;;;;;-5.55;51.73;100640.20;107352;1277;1003269;-63
2024/01/13 06:58:16;;;;;;;8.20;3.30;;;;;;;-5.43;51.71;100633.88;108138;1288;23048;-60
2024/01/13 07:00:42;;;;;;;7.50;3.90;;;;;;;-5.33;51.86;100628.94;108094;1287;21995;-60
2024/01/13 07:03:07;;;;;;;8.60;3.00;;;;;;;-5.25;52.00;100626.68;107388;1288;1002636;-60
2024/01/13 07:05:33;;;;;;;8.10;3.10;;;;;;;-5.19;52.16;100623.54;107395;1283;1003865;-62
2024/01/13 07:08:00;;;;;;;11.90;4.00;;;;;;;-5.12;52.12;100620.38;108079;1288;21996;-63
2024/01/13 07:10:27;;;;;;;9.00;3.80;;;;;;;-5.00;52.13;100614.69;107397;1283;1002616;-60
2024/01/13 07:12:52;;;;;;;12.90;4.00;;;;;;;-4.89;52.19;100611.64;108019;1288;22000;-63
2024/01/13 07:15:18;;;;;;;9.80;3.20;;;;;;;-4.78;52.22;100612.27;108109;1287;22002;-60
2024/01/13 07:17:44;;;;;;;8.10;3.60;;;;;;;-4.64;52.20;100609.04;108149;1283;23734;-60
2024/01/13 07:20:10;;;;;;;18.70;4.70;;;;;;;-4.53;52.36;100606.70;107373;1288;1003041;-64
2024/01/13 07:22:35;;;;;;;8.60;3.70;;;;;;;-4.44;52.53;100604.76;108141;1287;22023;-62
2024/01/13 07:25:02;;;;;;;11.70;4.70;;;;;;;-4.29;52.71;100603.47;107409;1277;1003266;-63
2024/01/13 07:27:28;;;;;;;9.10;4.10;;;;;;;-4.13;52.91;100599.82;107361;1274;1002296;-63
2024/01/13 07:29:53;;;;;;;10.90;4.30;;;;;;;-3.96;52.81;100594.50;108017;1288;21990;-61
2024/01/13 07:32:19;;;;;;;7.50;3.50;;;;;;;-3.80;53.03;100590.99;108094;1286;22013;-60
2024/01/13 07:34:44;;;;;;;8.70;4.30;;;;;;;-3.64;53.02;100586.77;108131;1283;24333;-62
2024/01/13 07:37:10;;;;;;;9.50;4.00;;;;;;;-3.49;53.21;100580.98;108133;1288;21991;-63
2024/01/13 07:39:36;;;;;;;8.30;3.90;;;;;;;-3.35;53.15;100585.59;108119;1288;21990;-64
2024/01/13 07:42:02;;;;;;;9.70;3.70;;;;;;;-3.20;52.93;100584.04;107397;1278;1002697;-60
2024/01/13 07:44:28;;;;;;;8.70;3.80;;;;;;;-3.06;53.25;100582.31;107986;1287;181739;-61
2024/01/13 07:46:58;;;;;;;8.60;3.90;;;;;;;-2.89;53.48;100579.14;107358;1287;1002362;-61
2024/01/13 07:49:23;;;;;;;6.40;3.60;;;;;;;-2.69;53.42;100583.77;108146;1288;21987;-62
2024/01/13 07:51:53;;;;;;;7.50;3.30;;;;;;;-2.59;53.48;100580.97;108097;1288;21993;-60
2024/01/13 07:54:19;;;;;;;7.60;3.10;;;;;;;-2.49;53.65;100578.30;108067;1287;21994;-61
2024/01/13 07:56:44;;;;;;;7.20;3.30;;;;;;;-2.38;53.59;100576.90;107328;1276;1002284;-64
2024/01/13 07:59:10;;;;;;;7.30;2.50;;;;;;;-2.21;53.73;100577.09;107340;1288;1015389;-64
2024/01/13 08:01:35;;;;;;;10.90;3.80;;;;;;;-2.06;53.84;100577.21;108069;1288;21997;-65
2024/01/13 08:04:01;;;;;;;7.50;3.90;;;;;;;-1.97;53.92;100580.34;108083;1288;22047;-61
2024/01/13 08:06:27;;;;;;;14.80;5.70;;;;;;;-1.86;54.34;100583.16;108087;1288;22000;-61
2024/01/13 08:08:55;;;;;;;12.50;5.50;;;;;;;-1.81;54.13;100577.55;108090;1283;21996;-65
2024/01/13 08:11:20;;;;;;;9.60;3.90;;;;;;;-1.74;54.30;100579.20;108131;1288;21989;-61
2024/01/13 08:13:46;;;;;;;10.20;3.30;;;;;;;-1.62;54.46;100577.77;108040;1288;21989;-61
2024/01/13 08:16:12;;;;;;;7.10;3.40;;;;;;;-1.54;54.46;100572.77;108075;1277;22063;-61
2024/01/13 08:18:37;;;;;;;10.10;4.00;;;;;;;-1.43;54.49;100569.94;107345;1276;1003139;-64
2024/01/13 08:21:03;;;;;;;11.90;4.70;;;;;;;-1.38;54.63;100568.59;107363;1288;1002049;-65
2024/01/13 08:23:28;;;;;;;12.20;4.40;;;;;;;-1.28;54.50;100565.52;107359;1288;1003902;-61
2024/01/13 08:25:54;;;;;;;9.50;4.30;;;;;;;-1.25;54.50;100563.23;108076;1284;21999;-66
2024/01/13 08:28:20;;;;;;;9.20;4.60;;;;;;;-1.10;54.75;100563.97;107967;1280;21990;-61
2024/01/13 08:30:45;;;;;;;10.10;4.70;;;;;;;-1.08;54.62;100559.04;108067;1286;22027;-64
2024/01/13 08:33:11;;;;;;;8.30;3.90;;;;;;;-1.12;54.70;100555.48;108130;1286;22004;-65
2024/01/13 08:35:37;;;;;;;12.00;4.30;;;;;;;-0.98;54.86;100556.84;108090;1286;21995;-64
2024/01/13 08:38:02;;;;;;;9.10;3.40;;;;;;;-0.89;54.91;100548.57;108135;1286;21987;-62
2024/01/13 08:40:28;;;;;;;8.70;3.50;;;;;;;-0.85;55.27;100549.20;108215;1286;21953;-60
2024/01/13 08:42:56;;;;;;;8.00;3.80;;;;;;;-0.82;55.13;100545.71;108144;1286;21997;-61
2024/01/13 08:45:29;;;;;;;8.30;2.80;;;;;;;-0.81;55.18;100540.05;107457;1286;1002635;-64
2024/01/13 08:47:57;;;;;;;8.10;3.00;;;;;;;-0.75;55.48;100531.16;107459;1286;1002898;-64
2024/01/13 08:50:23;;;;;;;8.70;4.00;;;;;;;-0.67;55.46;100528.66;108207;1286;22273;-64
2024/01/13 08:52:51;;;;;;;8.20;4.20;;;;;;;-0.62;55.36;100525.91;108203;1277;21989;-61
2024/01/13 08:55:18;;;;;;;8.00;3.50;;;;;;;-0.60;55.55;100519.77;108127;1286;21996;-61
2024/01/13 08:57:44;;;;;;;9.40;3.80;;;;;;;-0.53;55.41;100517.08;108176;1277;21994;-62
2024/01/13 09:00:10;;;;;;;9.70;3.90;;;;;;;-0.50;55.62;100515.30;108354;1280;21971;-61
2024/01/13 09:02:39;;;;;;;7.50;2.90;;;;;;;-0.38;55.66;100511.55;108385;1286;22027;-66
2024/01/13 09:05:05;;;;;;;7.50;3.30;;;;;;;-0.25;55.41;100506.33;108190;1286;21983;-64
2024/01/13 09:07:32;;;;;;;8.90;3.40;;;;;;;-0.17;55.08;100506.23;108127;1286;21987;-64
2024/01/13 09:09:58;;;;;;;6.80;2.60;;;;;;;-0.14;55.00;100505.65;107450;1286;1014368;-62
2024/01/13 09:12:24;;;;;;;7.80;3.10;;;;;;;-0.11;55.02;100503.16;107365;1286;1016804;-62
2024/01/13 09:14:49;;;;;;;6.20;2.80;;;;;;;-0.11;55.50;100502.63;108104;1286;21999;-64
2024/01/13 09:17:15;;;;;;;8.80;3.00;;;;;;;-0.12;55.78;100487.07;108169;1286;22002;-62
2024/01/13 09:19:40;;;;;;;7.50;3.40;;;;;;;-0.11;55.91;100480.71;108165;1286;21983;-61
2024/01/13 09:22:06;;;;;;;11.80;3.60;;;;;;;-0.10;55.87;100481.44;108160;1286;22091;-64
2024/01/13 09:24:32;;;;;;;6.10;3.30;;;;;;;-0.13;55.76;100474.45;108226;1286;22002;-66
2024/01/13 09:26:57;;;;;;;7.20;3.10;;;;;;;-0.14;55.46;100470.77;108134;1276;21989;-65
2024/01/13 09:29:23;;;;;;;6.10;2.90;;;;;;;-0.18;56.11;100468.79;108134;1286;21989;-63
2024/01/13 09:31:49;;;;;;;7.90;3.70;;;;;;;-0.13;57.16;100467.55;107355;1286;1002441;-62
2024/01/13 09:34:15;;;;;;;10.50;3.60;;;;;;;-0.12;57.15;100465.52;108171;1286;21987;-62
2024/01/13 09:36:41;;;;;;;6.20;3.00;;;;;;;-0.17;57.26;100461.22;108195;1286;21995;-62
2024/01/13 09:39:11;;;;;;;7.20;3.10;;;;;;;-0.11;58.12;100450.18;107440;1286;1002567;-61
2024/01/13 09:41:37;;;;;;;8.00;3.80;;;;;;;-0.01;57.87;100447.06;108195;1286;21987;-62
2024/01/13 09:44:24;;;;;;;8.10;3.60;;;;;;;0.01;57.33;100441.44;108090;1286;22001;-62
2024/01/13 09:46:51;;;;;;;6.40;3.00;;;;;;;0.07;57.09;100443.17;108040;1286;21991;-61
2024/01/13 09:49:18;;;;;;;7.50;3.30;;;;;;;0.09;57.23;100440.12;108118;1286;21989;-62
2024/01/13 09:51:44;;;;;;;6.70;3.70;;;;;;;0.19;57.51;100440.25;108299;1286;21979;-61
2024/01/13 09:54:11;;;;;;;7.60;3.30;;;;;;;0.25;57.53;100435.61;108160;1286;23144;-64
2024/01/13 09:56:44;;;;;;;8.10;3.60;;;;;;;0.33;57.63;100431.67;108091;1286;21987;-64
2024/01/13 09:59:11;;;;;;;7.20;2.90;;;;;;;0.44;57.68;100432.40;107377;1286;1003154;-62
2024/01/13 10:01:37;;;;;;;8.10;3.50;;;;;;;0.52;58.13;100431.05;108166;1286;21984;-65
2024/01/13 10:04:03;;;;;;;9.50;3.70;;;;;;;0.55;57.98;100428.05;108104;1286;21974;-63
2024/01/13 10:06:31;;;;;;;9.00;3.10;;;;;;;0.63;57.77;100421.54;108206;1273;22024;-64
2024/01/13 10:08:57;;;;;;;5.70;2.80;;;;;;;0.66;57.47;100419.90;108171;1286;22014;-62
2024/01/13 10:11:22;;;;;;;9.00;4.20;;;;;;;0.69;57.20;100423.77;108066;1280;21990;-64
2024/01/13 10:14:01;;;;;;;9.60;4.00;;;;;;;0.68;57.04;100423.05;107321;1280;1002178;-64
2024/01/13 10:16:29;;;;;;;9.10;3.60;;;;;;;0.67;56.72;100418.36;107379;1286;1002490;-61
2024/01/13 10:18:55;;;;;;;7.00;3.20;;;;;;;0.69;56.77;100416.17;107530;1276;1002255;-61
2024/01/13 10:21:22;;;;;;;10.50;3.90;;;;;;;0.69;56.94;100412.72;107611;1286;1002899;-61
2024/01/13 10:23:48;;;;;;;11.30;4.60;;;;;;;0.72;57.00;100405.39;107404;1283;1002422;-63
2024/01/13 10:26:13;;;;;;;28.60;9.80;;;;;;;0.73;58.06;100406.27;108201;1286;21996;-64
2024/01/13 10:28:39;;;;;;;48.10;19.70;;;;;;;0.70;63.33;100406.89;108105;1284;21987;-64
2024/01/13 10:31:04;;;;;;;12.10;5.90;;;;;;;0.78;64.95;100396.91;107973;1286;22027;-62
2024/01/13 10:33:31;;;;;;;14.40;6.20;;;;;;;0.86;64.13;100393.16;108121;1286;21981;-64
2024/01/13 10:35:57;;;;;;;42.10;13.10;;;;;;;0.95;63.31;100387.00;108193;1286;22003;-63
2024/01/13 10:38:23;;;;;;;18.40;6.60;;;;;;;0.98;62.47;100392.63;108261;1281;21996;-61
2024/01/13 10:40:49;;;;;;;16.90;6.50;;;;;;;0.94;61.96;100389.73;107342;1280;1002347;-61
2024/01/13 10:43:15;;;;;;;30.90;11.20;;;;;;;0.96;62.15;100388.92;108228;1277;21989;-64
2024/01/13 10:45:43;;;;;;;44.10;17.10;;;;;;;0.97;62.51;100384.13;108142;1286;21994;-61
2024/01/13 10:48:16;;;;;;;30.00;12.50;;;;;;;1.00;64.37;100381.95;108134;1286;22000;-64
2024/01/13 10:50:42;;;;;;;49.00;18.80;;;;;;;1.06;64.59;100381.08;108244;1283;22023;-62
2024/01/13 10:53:15;;;;;;;32.20;13.40;;;;;;;1.09;64.91;100380.81;107342;1286;1002344;-64
2024/01/13 10:55:41;;;;;;;16.50;7.50;;;;;;;1.14;64.02;100380.05;108135;1277;22166;-61
2024/01/13 10:58:07;;;;;;;70.00;27.70;;;;;;;1.11;63.43;100371.34;108128;1286;21995;-64
2024/01/13 11:00:32;;;;;;;44.30;16.00;;;;;;;1.08;63.00;100368.52;108088;1277;21982;-63
2024/01/13 11:02:58;;;;;;;46.10;19.40;;;;;;;1.09;62.97;100364.23;107934;1286;22065;-63